Terminal Aerodrome Forecast
Issued by NWS Shreveport, LA

Home | Current Version | Previous Version | Text Only | Print | Product List | Glossary On
Versions: 1 2 3 4 5 6 7 8 9 10 11 12
459
FTUS44 KSHV 211744
TAFELD
TAF
KELD 211744Z 2118/2218 14004KT P6SM SCT060 BKN250
     FM212000 14004KT P6SM SCT030 BKN050
     FM220000 VRB03KT P6SM SCT030 BKN180
     FM220600 36005KT P6SM FEW035 SCT250
     FM220900 36008KT P6SM SKC
     FM221500 02011KT P6SM SKC=

USA.gov is the U.S. government's official web portal to all federal, state and local government web resources and services.